sensor_id;sensor_type;location;lat;lon;timestamp;pressure;altitude;pressure_sealevel;temperature;humidity
12077;BME280;12420;42.676;23.262;2023-07-31T00:01:45;94256.78;;;22.08;100.00
12077;BME280;12420;42.676;23.262;2023-07-31T00:04:12;94247.25;;;21.78;100.00
12077;BME280;12420;42.676;23.262;2023-07-31T00:06:40;94297.19;;;22.48;100.00
12077;BME280;12420;42.676;23.262;2023-07-31T00:09:07;94279.06;;;22.28;100.00
12077;BME280;12420;42.676;23.262;2023-07-31T00:11:35;94303.09;;;22.41;100.00
12077;BME280;12420;42.676;23.262;2023-07-31T00:14:03;94300.16;;;22.15;100.00
12077;BME280;12420;42.676;23.262;2023-07-31T00:16:30;94232.78;;;21.60;100.00
12077;BME280;12420;42.676;23.262;2023-07-31T00:18:57;94296.38;;;22.22;100.00
12077;BME280;12420;42.676;23.262;2023-07-31T00:21:24;94291.84;;;22.29;100.00
12077;BME280;12420;42.676;23.262;2023-07-31T00:23:52;94283.34;;;22.41;100.00
12077;BME280;12420;42.676;23.262;2023-07-31T00:26:19;94275.38;;;22.49;100.00
12077;BME280;12420;42.676;23.262;2023-07-31T00:28:45;94292.28;;;22.49;100.00
12077;BME280;12420;42.676;23.262;2023-07-31T00:31:12;94262.75;;;22.50;100.00
12077;BME280;12420;42.676;23.262;2023-07-31T00:33:39;94191.59;;;22.14;100.00
12077;BME280;12420;42.676;23.262;2023-07-31T00:36:06;94266.53;;;22.54;100.00
12077;BME280;12420;42.676;23.262;2023-07-31T00:38:32;94254.22;;;22.62;100.00
12077;BME280;12420;42.676;23.262;2023-07-31T00:41:01;94217.44;;;22.34;100.00
12077;BME280;12420;42.676;23.262;2023-07-31T00:43:28;94250.56;;;22.59;100.00
12077;BME280;12420;42.676;23.262;2023-07-31T00:45:54;94259.28;;;22.63;100.00
12077;BME280;12420;42.676;23.262;2023-07-31T00:48:22;94257.19;;;22.64;100.00
12077;BME280;12420;42.676;23.262;2023-07-31T00:50:51;94250.34;;;22.55;100.00
12077;BME280;12420;42.676;23.262;2023-07-31T00:53:18;94265.25;;;22.69;100.00
12077;BME280;12420;42.676;23.262;2023-07-31T00:55:47;94258.75;;;22.67;100.00
12077;BME280;12420;42.676;23.262;2023-07-31T00:58:17;94240.53;;;22.56;100.00
12077;BME280;12420;42.676;23.262;2023-07-31T01:00:44;94237.63;;;22.42;100.00
12077;BME280;12420;42.676;23.262;2023-07-31T01:03:11;94234.88;;;22.56;100.00
12077;BME280;12420;42.676;23.262;2023-07-31T01:05:44;94249.63;;;22.54;100.00
12077;BME280;12420;42.676;23.262;2023-07-31T01:08:20;94258.94;;;22.45;100.00
12077;BME280;12420;42.676;23.262;2023-07-31T01:10:56;94257.50;;;22.32;100.00
12077;BME280;12420;42.676;23.262;2023-07-31T01:13:28;94242.44;;;22.16;100.00
12077;BME280;12420;42.676;23.262;2023-07-31T01:15:55;94252.00;;;22.23;100.00
12077;BME280;12420;42.676;23.262;2023-07-31T01:18:22;94243.16;;;22.17;100.00
12077;BME280;12420;42.676;23.262;2023-07-31T01:20:54;94240.84;;;22.25;100.00
12077;BME280;12420;42.676;23.262;2023-07-31T01:23:36;94243.06;;;22.26;100.00
12077;BME280;12420;42.676;23.262;2023-07-31T01:26:11;94244.03;;;22.07;100.00
12077;BME280;12420;42.676;23.262;2023-07-31T01:28:54;94220.16;;;21.73;100.00
12077;BME280;12420;42.676;23.262;2023-07-31T01:31:24;94235.84;;;21.76;100.00
12077;BME280;12420;42.676;23.262;2023-07-31T01:33:54;94216.38;;;21.68;100.00
12077;BME280;12420;42.676;23.262;2023-07-31T01:36:22;94239.88;;;21.85;100.00
12077;BME280;12420;42.676;23.262;2023-07-31T01:38:50;94205.09;;;21.68;100.00
12077;BME280;12420;42.676;23.262;2023-07-31T01:41:18;94240.25;;;21.91;100.00
12077;BME280;12420;42.676;23.262;2023-07-31T01:43:45;94215.13;;;21.72;100.00
12077;BME280;12420;42.676;23.262;2023-07-31T01:46:12;94196.28;;;21.62;100.00
12077;BME280;12420;42.676;23.262;2023-07-31T01:48:39;94223.22;;;21.89;100.00
12077;BME280;12420;42.676;23.262;2023-07-31T01:51:06;94231.19;;;21.69;100.00
12077;BME280;12420;42.676;23.262;2023-07-31T01:53:33;94229.09;;;21.58;100.00
12077;BME280;12420;42.676;23.262;2023-07-31T01:55:59;94244.41;;;21.66;100.00
12077;BME280;12420;42.676;23.262;2023-07-31T01:58:28;94242.03;;;21.39;100.00
12077;BME280;12420;42.676;23.262;2023-07-31T02:00:54;94238.75;;;21.43;100.00
12077;BME280;12420;42.676;23.262;2023-07-31T02:03:22;94236.06;;;21.45;100.00
12077;BME280;12420;42.676;23.262;2023-07-31T02:05:49;94243.00;;;21.32;100.00
12077;BME280;12420;42.676;23.262;2023-07-31T02:08:16;94190.28;;;20.88;100.00
12077;BME280;12420;42.676;23.262;2023-07-31T02:10:43;94240.66;;;21.17;100.00
12077;BME280;12420;42.676;23.262;2023-07-31T02:13:10;94246.38;;;21.07;100.00
12077;BME280;12420;42.676;23.262;2023-07-31T02:15:38;94258.13;;;21.15;100.00
12077;BME280;12420;42.676;23.262;2023-07-31T02:18:05;94247.72;;;21.18;100.00
12077;BME280;12420;42.676;23.262;2023-07-31T02:20:33;94245.91;;;21.22;100.00
12077;BME280;12420;42.676;23.262;2023-07-31T02:23:00;94243.47;;;21.29;100.00
12077;BME280;12420;42.676;23.262;2023-07-31T02:25:27;94209.41;;;21.13;100.00
12077;BME280;12420;42.676;23.262;2023-07-31T02:27:54;94252.34;;;21.46;100.00
12077;BME280;12420;42.676;23.262;2023-07-31T02:30:21;94167.81;;;20.99;100.00
12077;BME280;12420;42.676;23.262;2023-07-31T02:32:49;94257.25;;;21.70;100.00
12077;BME280;12420;42.676;23.262;2023-07-31T02:35:16;94233.13;;;21.66;100.00
12077;BME280;12420;42.676;23.262;2023-07-31T02:37:44;94204.72;;;21.62;100.00
12077;BME280;12420;42.676;23.262;2023-07-31T02:40:11;94248.69;;;21.91;100.00
12077;BME280;12420;42.676;23.262;2023-07-31T02:42:38;94253.38;;;21.98;100.00
12077;BME280;12420;42.676;23.262;2023-07-31T02:45:06;94258.50;;;22.02;100.00
12077;BME280;12420;42.676;23.262;2023-07-31T02:47:33;94261.19;;;22.11;100.00
12077;BME280;12420;42.676;23.262;2023-07-31T02:50:01;94264.13;;;22.02;100.00
12077;BME280;12420;42.676;23.262;2023-07-31T02:52:28;94266.59;;;22.19;100.00
12077;BME280;12420;42.676;23.262;2023-07-31T02:54:55;94267.69;;;22.14;100.00
12077;BME280;12420;42.676;23.262;2023-07-31T02:57:22;94250.03;;;22.14;100.00
12077;BME280;12420;42.676;23.262;2023-07-31T02:59:48;94268.06;;;22.08;100.00
12077;BME280;12420;42.676;23.262;2023-07-31T03:02:15;94282.38;;;22.13;100.00
12077;BME280;12420;42.676;23.262;2023-07-31T03:04:42;94274.16;;;22.17;100.00
12077;BME280;12420;42.676;23.262;2023-07-31T03:07:10;94277.63;;;22.03;100.00
12077;BME280;12420;42.676;23.262;2023-07-31T03:09:37;94278.69;;;21.75;100.00
12077;BME280;12420;42.676;23.262;2023-07-31T03:12:04;94274.53;;;21.64;100.00
12077;BME280;12420;42.676;23.262;2023-07-31T03:14:31;94269.31;;;21.37;100.00
12077;BME280;12420;42.676;23.262;2023-07-31T03:16:58;94281.72;;;21.43;100.00
12077;BME280;12420;42.676;23.262;2023-07-31T03:19:25;94280.75;;;21.51;100.00
12077;BME280;12420;42.676;23.262;2023-07-31T03:21:52;94258.81;;;21.49;100.00
12077;BME280;12420;42.676;23.262;2023-07-31T03:24:20;94282.00;;;21.83;100.00
12077;BME280;12420;42.676;23.262;2023-07-31T03:26:47;94291.19;;;21.95;100.00
12077;BME280;12420;42.676;23.262;2023-07-31T03:29:13;94281.53;;;21.98;100.00
12077;BME280;12420;42.676;23.262;2023-07-31T03:31:40;94280.06;;;21.97;100.00
12077;BME280;12420;42.676;23.262;2023-07-31T03:34:07;94264.97;;;21.93;100.00
12077;BME280;12420;42.676;23.262;2023-07-31T03:36:34;94294.63;;;22.05;100.00
12077;BME280;12420;42.676;23.262;2023-07-31T03:39:00;94296.25;;;22.08;100.00
12077;BME280;12420;42.676;23.262;2023-07-31T03:41:28;94296.25;;;22.08;100.00
12077;BME280;12420;42.676;23.262;2023-07-31T03:43:55;94301.63;;;22.16;100.00
12077;BME280;12420;42.676;23.262;2023-07-31T03:46:22;94291.44;;;21.99;100.00
12077;BME280;12420;42.676;23.262;2023-07-31T03:48:49;94310.44;;;22.10;100.00
12077;BME280;12420;42.676;23.262;2023-07-31T03:51:16;94292.84;;;21.41;100.00
12077;BME280;12420;42.676;23.262;2023-07-31T03:53:43;94292.13;;;21.41;100.00
12077;BME280;12420;42.676;23.262;2023-07-31T03:56:10;94291.72;;;21.35;100.00
12077;BME280;12420;42.676;23.262;2023-07-31T03:58:39;94309.66;;;21.51;100.00
12077;BME280;12420;42.676;23.262;2023-07-31T04:01:05;94329.63;;;21.67;100.00
12077;BME280;12420;42.676;23.262;2023-07-31T04:03:32;94286.41;;;21.17;100.00
12077;BME280;12420;42.676;23.262;2023-07-31T04:05:59;94314.06;;;21.54;100.00
12077;BME280;12420;42.676;23.262;2023-07-31T04:08:26;94321.41;;;21.59;100.00
12077;BME280;12420;42.676;23.262;2023-07-31T04:10:53;94308.66;;;21.46;100.00
12077;BME280;12420;42.676;23.262;2023-07-31T04:13:22;94323.41;;;21.35;100.00
12077;BME280;12420;42.676;23.262;2023-07-31T04:15:50;94313.19;;;21.40;100.00
12077;BME280;12420;42.676;23.262;2023-07-31T04:18:20;94337.06;;;21.51;100.00
12077;BME280;12420;42.676;23.262;2023-07-31T04:20:47;94326.66;;;21.53;100.00
12077;BME280;12420;42.676;23.262;2023-07-31T04:23:13;94238.47;;;20.94;100.00
12077;BME280;12420;42.676;23.262;2023-07-31T04:25:40;94327.66;;;21.70;100.00
12077;BME280;12420;42.676;23.262;2023-07-31T04:28:07;94297.41;;;21.58;100.00
12077;BME280;12420;42.676;23.262;2023-07-31T04:30:34;94332.47;;;21.79;100.00
12077;BME280;12420;42.676;23.262;2023-07-31T04:33:03;94314.09;;;21.78;100.00
12077;BME280;12420;42.676;23.262;2023-07-31T04:35:30;94331.16;;;22.03;100.00
12077;BME280;12420;42.676;23.262;2023-07-31T04:37:57;94299.28;;;21.89;100.00
12077;BME280;12420;42.676;23.262;2023-07-31T04:40:23;94318.28;;;22.00;100.00
12077;BME280;12420;42.676;23.262;2023-07-31T04:42:50;94321.97;;;21.91;100.00
12077;BME280;12420;42.676;23.262;2023-07-31T04:45:17;94333.09;;;22.13;100.00
12077;BME280;12420;42.676;23.262;2023-07-31T04:47:43;94329.06;;;22.16;100.00
12077;BME280;12420;42.676;23.262;2023-07-31T04:50:12;94329.06;;;22.16;100.00
12077;BME280;12420;42.676;23.262;2023-07-31T04:52:39;94320.25;;;22.33;100.00
12077;BME280;12420;42.676;23.262;2023-07-31T04:55:06;94337.91;;;22.33;100.00
12077;BME280;12420;42.676;23.262;2023-07-31T04:57:33;94327.13;;;22.42;100.00
12077;BME280;12420;42.676;23.262;2023-07-31T05:00:00;94288.25;;;22.05;100.00
12077;BME280;12420;42.676;23.262;2023-07-31T05:02:26;94322.34;;;22.21;100.00
12077;BME280;12420;42.676;23.262;2023-07-31T05:04:53;94329.91;;;22.18;100.00
12077;BME280;12420;42.676;23.262;2023-07-31T05:07:21;94331.75;;;21.78;100.00
12077;BME280;12420;42.676;23.262;2023-07-31T05:09:48;94328.09;;;21.99;100.00
12077;BME280;12420;42.676;23.262;2023-07-31T05:12:15;94299.78;;;21.74;100.00
12077;BME280;12420;42.676;23.262;2023-07-31T05:14:41;94319.38;;;21.95;100.00
12077;BME280;12420;42.676;23.262;2023-07-31T05:17:08;94246.34;;;21.52;100.00
12077;BME280;12420;42.676;23.262;2023-07-31T05:19:35;94273.28;;;21.67;100.00
12077;BME280;12420;42.676;23.262;2023-07-31T05:22:02;94302.56;;;21.50;100.00
12077;BME280;12420;42.676;23.262;2023-07-31T05:24:30;94320.81;;;21.73;100.00
12077;BME280;12420;42.676;23.262;2023-07-31T05:26:57;94327.91;;;21.62;100.00
12077;BME280;12420;42.676;23.262;2023-07-31T05:29:23;94315.91;;;21.61;100.00
12077;BME280;12420;42.676;23.262;2023-07-31T05:31:50;94291.03;;;21.46;100.00
12077;BME280;12420;42.676;23.262;2023-07-31T05:34:17;94333.69;;;21.87;100.00
12077;BME280;12420;42.676;23.262;2023-07-31T05:36:44;94324.22;;;21.59;100.00
12077;BME280;12420;42.676;23.262;2023-07-31T05:39:10;94327.28;;;21.52;100.00
12077;BME280;12420;42.676;23.262;2023-07-31T05:41:39;94332.44;;;21.55;100.00
12077;BME280;12420;42.676;23.262;2023-07-31T05:44:06;94327.81;;;21.72;100.00
12077;BME280;12420;42.676;23.262;2023-07-31T05:46:32;94313.47;;;21.67;100.00
12077;BME280;12420;42.676;23.262;2023-07-31T05:48:59;94336.63;;;21.66;100.00
12077;BME280;12420;42.676;23.262;2023-07-31T05:51:26;94320.31;;;21.64;100.00
12077;BME280;12420;42.676;23.262;2023-07-31T05:53:53;94319.72;;;21.78;100.00
12077;BME280;12420;42.676;23.262;2023-07-31T05:56:20;94329.06;;;21.92;100.00
12077;BME280;12420;42.676;23.262;2023-07-31T05:58:48;94314.09;;;21.78;100.00
12077;BME280;12420;42.676;23.262;2023-07-31T06:01:16;94325.59;;;21.70;100.00
12077;BME280;12420;42.676;23.262;2023-07-31T06:03:43;94322.19;;;21.95;100.00
12077;BME280;12420;42.676;23.262;2023-07-31T06:06:10;94317.78;;;22.16;100.00
12077;BME280;12420;42.676;23.262;2023-07-31T06:08:37;94333.03;;;22.34;100.00
12077;BME280;12420;42.676;23.262;2023-07-31T06:11:03;94286.81;;;22.04;100.00
12077;BME280;12420;42.676;23.262;2023-07-31T06:13:31;94347.97;;;22.48;100.00
12077;BME280;12420;42.676;23.262;2023-07-31T06:16:01;94351.03;;;22.29;100.00
12077;BME280;12420;42.676;23.262;2023-07-31T06:18:30;94331.63;;;22.00;100.00
12077;BME280;12420;42.676;23.262;2023-07-31T06:20:57;94347.81;;;21.99;100.00
12077;BME280;12420;42.676;23.262;2023-07-31T06:23:24;94345.75;;;22.11;100.00
12077;BME280;12420;42.676;23.262;2023-07-31T06:25:51;94360.94;;;22.06;100.00
12077;BME280;12420;42.676;23.262;2023-07-31T06:28:17;94348.47;;;22.21;100.00
12077;BME280;12420;42.676;23.262;2023-07-31T06:30:44;94343.66;;;22.12;100.00
12077;BME280;12420;42.676;23.262;2023-07-31T06:33:12;94307.84;;;22.03;100.00
12077;BME280;12420;42.676;23.262;2023-07-31T06:35:39;94320.28;;;22.21;100.00
12077;BME280;12420;42.676;23.262;2023-07-31T06:38:06;94327.25;;;22.32;100.00
12077;BME280;12420;42.676;23.262;2023-07-31T06:40:33;94351.16;;;22.54;98.92
12077;BME280;12420;42.676;23.262;2023-07-31T06:42:59;94350.16;;;22.50;100.00
12077;BME280;12420;42.676;23.262;2023-07-31T06:45:31;94364.38;;;22.64;99.80
12077;BME280;12420;42.676;23.262;2023-07-31T06:47:58;94351.13;;;22.66;99.31
12077;BME280;12420;42.676;23.262;2023-07-31T06:50:29;94360.94;;;22.77;99.34
12077;BME280;12420;42.676;23.262;2023-07-31T06:52:56;94338.72;;;22.83;98.25
12077;BME280;12420;42.676;23.262;2023-07-31T06:55:24;94354.06;;;22.80;96.63
12077;BME280;12420;42.676;23.262;2023-07-31T06:57:52;94349.00;;;22.90;97.21
12077;BME280;12420;42.676;23.262;2023-07-31T07:00:20;94312.06;;;22.86;96.37
12077;BME280;12420;42.676;23.262;2023-07-31T07:02:48;94330.44;;;23.11;93.26
12077;BME280;12420;42.676;23.262;2023-07-31T07:05:16;94339.41;;;22.95;93.80
12077;BME280;12420;42.676;23.262;2023-07-31T07:07:44;94321.56;;;22.67;94.06
12077;BME280;12420;42.676;23.262;2023-07-31T07:10:11;94346.81;;;22.77;94.27
12077;BME280;12420;42.676;23.262;2023-07-31T07:12:38;94331.44;;;23.04;94.75
12077;BME280;12420;42.676;23.262;2023-07-31T07:15:06;94310.50;;;22.71;93.00
12077;BME280;12420;42.676;23.262;2023-07-31T07:17:33;94343.09;;;22.86;92.87
12077;BME280;12420;42.676;23.262;2023-07-31T07:20:00;94341.25;;;23.03;93.11
12077;BME280;12420;42.676;23.262;2023-07-31T07:22:28;94293.13;;;22.51;93.01
12077;BME280;12420;42.676;23.262;2023-07-31T07:24:57;94346.25;;;23.16;91.26
12077;BME280;12420;42.676;23.262;2023-07-31T07:27:24;94350.53;;;23.17;90.94
12077;BME280;12420;42.676;23.262;2023-07-31T07:29:51;94347.13;;;23.07;91.72
12077;BME280;12420;42.676;23.262;2023-07-31T07:32:18;94325.97;;;23.19;90.08
12077;BME280;12420;42.676;23.262;2023-07-31T07:34:46;94350.75;;;23.58;87.29
12077;BME280;12420;42.676;23.262;2023-07-31T07:37:13;94345.34;;;23.25;86.48
12077;BME280;12420;42.676;23.262;2023-07-31T07:39:41;94333.56;;;23.29;86.38
12077;BME280;12420;42.676;23.262;2023-07-31T07:42:09;94335.75;;;23.30;87.66
12077;BME280;12420;42.676;23.262;2023-07-31T07:44:36;94334.03;;;23.51;86.94
12077;BME280;12420;42.676;23.262;2023-07-31T07:47:03;94344.03;;;23.66;86.87
12077;BME280;12420;42.676;23.262;2023-07-31T07:49:32;94335.69;;;23.42;88.52
12077;BME280;12420;42.676;23.262;2023-07-31T07:51:59;94361.13;;;23.68;88.72
12077;BME280;12420;42.676;23.262;2023-07-31T07:54:26;94346.59;;;23.73;86.00
12077;BME280;12420;42.676;23.262;2023-07-31T07:56:53;94370.50;;;23.58;86.01
12077;BME280;12420;42.676;23.262;2023-07-31T07:59:22;94362.09;;;23.72;84.63
12077;BME280;12420;42.676;23.262;2023-07-31T08:01:50;94358.81;;;23.38;85.65
12077;BME280;12420;42.676;23.262;2023-07-31T08:04:18;94371.13;;;23.57;83.91
12077;BME280;12420;42.676;23.262;2023-07-31T08:06:45;94366.28;;;23.71;82.95
12077;BME280;12420;42.676;23.262;2023-07-31T08:09:12;94359.13;;;23.70;81.32
12077;BME280;12420;42.676;23.262;2023-07-31T08:11:38;94363.44;;;23.97;81.60
12077;BME280;12420;42.676;23.262;2023-07-31T08:14:05;94349.19;;;23.95;79.69
12077;BME280;12420;42.676;23.262;2023-07-31T08:16:33;94363.09;;;23.91;79.12
12077;BME280;12420;42.676;23.262;2023-07-31T08:19:00;94358.72;;;24.01;78.74
12077;BME280;12420;42.676;23.262;2023-07-31T08:21:27;94365.75;;;24.14;78.83
12077;BME280;12420;42.676;23.262;2023-07-31T08:23:53;94315.03;;;23.91;78.09
12077;BME280;12420;42.676;23.262;2023-07-31T08:26:20;94357.13;;;24.52;77.22
12077;BME280;12420;42.676;23.262;2023-07-31T08:28:48;94355.53;;;24.35;76.46
12077;BME280;12420;42.676;23.262;2023-07-31T08:31:14;94363.66;;;24.68;73.80
12077;BME280;12420;42.676;23.262;2023-07-31T08:33:45;94365.75;;;24.54;75.48
12077;BME280;12420;42.676;23.262;2023-07-31T08:36:12;94347.91;;;24.65;75.28
12077;BME280;12420;42.676;23.262;2023-07-31T08:38:39;94361.34;;;24.78;75.43
12077;BME280;12420;42.676;23.262;2023-07-31T08:41:05;94346.13;;;24.72;74.69
12077;BME280;12420;42.676;23.262;2023-07-31T08:43:32;94369.91;;;24.94;75.26
12077;BME280;12420;42.676;23.262;2023-07-31T08:46:01;94375.06;;;24.84;73.29
12077;BME280;12420;42.676;23.262;2023-07-31T08:48:29;94363.84;;;24.72;73.47
12077;BME280;12420;42.676;23.262;2023-07-31T08:50:59;94369.06;;;24.78;74.11
12077;BME280;12420;42.676;23.262;2023-07-31T08:53:25;94336.59;;;24.51;72.93
12077;BME280;12420;42.676;23.262;2023-07-31T08:55:52;94361.66;;;24.71;72.94
12077;BME280;12420;42.676;23.262;2023-07-31T08:58:20;94359.84;;;24.77;71.99
12077;BME280;12420;42.676;23.262;2023-07-31T09:00:47;94345.38;;;24.85;72.67
12077;BME280;12420;42.676;23.262;2023-07-31T09:03:16;94359.75;;;25.17;69.79
12077;BME280;12420;42.676;23.262;2023-07-31T09:05:45;94362.44;;;25.15;68.85
12077;BME280;12420;42.676;23.262;2023-07-31T09:08:18;94317.41;;;24.91;69.60
12077;BME280;12420;42.676;23.262;2023-07-31T09:10:46;94360.66;;;25.21;69.55
12077;BME280;12420;42.676;23.262;2023-07-31T09:13:15;94358.75;;;25.26;69.57
12077;BME280;12420;42.676;23.262;2023-07-31T09:15:44;94347.91;;;25.36;69.06
12077;BME280;12420;42.676;23.262;2023-07-31T09:18:11;94323.59;;;25.31;68.46
12077;BME280;12420;42.676;23.262;2023-07-31T09:20:39;94340.31;;;25.54;68.88
12077;BME280;12420;42.676;23.262;2023-07-31T09:23:07;94350.84;;;25.68;67.93
12077;BME280;12420;42.676;23.262;2023-07-31T09:25:38;94315.41;;;25.37;69.54
12077;BME280;12420;42.676;23.262;2023-07-31T09:28:07;94317.00;;;25.26;70.25
12077;BME280;12420;42.676;23.262;2023-07-31T09:30:45;94324.56;;;25.51;70.33
12077;BME280;12420;42.676;23.262;2023-07-31T09:33:12;94286.00;;;25.44;69.52
12077;BME280;12420;42.676;23.262;2023-07-31T09:35:39;94330.13;;;25.79;68.32
12077;BME280;12420;42.676;23.262;2023-07-31T09:38:08;94339.28;;;25.77;68.08
12077;BME280;12420;42.676;23.262;2023-07-31T09:40:38;94323.91;;;25.83;67.89
12077;BME280;12420;42.676;23.262;2023-07-31T09:43:06;94332.00;;;26.04;66.50
12077;BME280;12420;42.676;23.262;2023-07-31T09:45:34;94329.63;;;25.98;66.09
12077;BME280;12420;42.676;23.262;2023-07-31T09:48:01;94323.31;;;26.16;65.10
12077;BME280;12420;42.676;23.262;2023-07-31T09:50:29;94312.78;;;26.03;64.49
12077;BME280;12420;42.676;23.262;2023-07-31T09:52:56;94327.41;;;26.13;64.49
12077;BME280;12420;42.676;23.262;2023-07-31T09:55:25;94324.50;;;26.27;63.78
12077;BME280;12420;42.676;23.262;2023-07-31T09:57:55;94292.66;;;25.96;64.32
12077;BME280;12420;42.676;23.262;2023-07-31T10:00:25;94327.16;;;26.07;65.90
12077;BME280;12420;42.676;23.262;2023-07-31T10:02:54;94312.34;;;26.24;65.12
12077;BME280;12420;42.676;23.262;2023-07-31T10:05:29;94320.28;;;26.28;64.90
12077;BME280;12420;42.676;23.262;2023-07-31T10:07:57;94309.59;;;26.26;65.52
12077;BME280;12420;42.676;23.262;2023-07-31T10:10:25;94324.66;;;26.47;62.86
12077;BME280;12420;42.676;23.262;2023-07-31T10:12:56;94266.78;;;25.88;62.01
12077;BME280;12420;42.676;23.262;2023-07-31T10:15:23;94327.44;;;26.29;62.35
12077;BME280;12420;42.676;23.262;2023-07-31T10:17:51;94328.88;;;26.46;61.97
12077;BME280;12420;42.676;23.262;2023-07-31T10:20:20;94306.97;;;26.48;61.32
12077;BME280;12420;42.676;23.262;2023-07-31T10:22:48;94314.97;;;26.52;60.02
12077;BME280;12420;42.676;23.262;2023-07-31T10:25:15;94310.38;;;26.45;61.18
12077;BME280;12420;42.676;23.262;2023-07-31T10:27:45;94285.03;;;26.33;62.27
12077;BME280;12420;42.676;23.262;2023-07-31T10:30:17;94317.25;;;26.55;61.19
12077;BME280;12420;42.676;23.262;2023-07-31T10:32:46;94311.78;;;26.59;58.77
12077;BME280;12420;42.676;23.262;2023-07-31T10:35:16;94319.56;;;26.59;58.43
12077;BME280;12420;42.676;23.262;2023-07-31T10:37:44;94298.69;;;26.52;58.27
12077;BME280;12420;42.676;23.262;2023-07-31T10:40:12;94309.94;;;26.84;58.31
12077;BME280;12420;42.676;23.262;2023-07-31T10:42:45;94302.22;;;26.69;58.34
12077;BME280;12420;42.676;23.262;2023-07-31T10:45:25;94296.19;;;26.94;56.64
12077;BME280;12420;42.676;23.262;2023-07-31T10:47:59;94290.25;;;26.88;54.63
12077;BME280;12420;42.676;23.262;2023-07-31T10:50:27;94301.97;;;27.14;53.20
12077;BME280;12420;42.676;23.262;2023-07-31T10:52:56;94299.66;;;27.26;53.94
12077;BME280;12420;42.676;23.262;2023-07-31T10:55:31;94289.41;;;27.19;53.61
12077;BME280;12420;42.676;23.262;2023-07-31T10:58:05;94294.94;;;27.15;53.68
12077;BME280;12420;42.676;23.262;2023-07-31T11:00:36;94293.16;;;27.24;51.12
12077;BME280;12420;42.676;23.262;2023-07-31T11:03:04;94291.72;;;27.07;50.52
12077;BME280;12420;42.676;23.262;2023-07-31T11:05:46;94271.16;;;27.24;52.17
12077;BME280;12420;42.676;23.262;2023-07-31T11:08:14;94283.81;;;27.39;52.25
12077;BME280;12420;42.676;23.262;2023-07-31T11:10:42;94273.94;;;27.22;50.86
12077;BME280;12420;42.676;23.262;2023-07-31T11:13:10;94262.91;;;27.31;50.49
12077;BME280;12420;42.676;23.262;2023-07-31T11:15:39;94266.41;;;27.67;50.04
12077;BME280;12420;42.676;23.262;2023-07-31T11:18:05;94271.00;;;27.56;50.32
12077;BME280;12420;42.676;23.262;2023-07-31T11:20:38;94269.84;;;27.63;49.85
12077;BME280;12420;42.676;23.262;2023-07-31T11:23:07;94254.28;;;27.46;50.78
12077;BME280;12420;42.676;23.262;2023-07-31T11:25:35;94286.75;;;27.59;49.04
12077;BME280;12420;42.676;23.262;2023-07-31T11:28:06;94274.34;;;27.51;50.97
12077;BME280;12420;42.676;23.262;2023-07-31T11:30:33;94279.22;;;27.48;50.56
12077;BME280;12420;42.676;23.262;2023-07-31T11:33:06;94285.84;;;27.55;50.46
12077;BME280;12420;42.676;23.262;2023-07-31T11:35:34;94256.94;;;27.24;53.93
12077;BME280;12420;42.676;23.262;2023-07-31T11:38:02;94279.91;;;27.66;54.92
12077;BME280;12420;42.676;23.262;2023-07-31T11:40:29;94274.16;;;27.46;53.33
12077;BME280;12420;42.676;23.262;2023-07-31T11:42:56;94262.38;;;27.54;52.93
12077;BME280;12420;42.676;23.262;2023-07-31T11:45:25;94276.75;;;27.58;52.36
12077;BME280;12420;42.676;23.262;2023-07-31T11:47:54;94240.78;;;27.11;52.61
12077;BME280;12420;42.676;23.262;2023-07-31T11:50:23;94275.25;;;27.75;53.29
12077;BME280;12420;42.676;23.262;2023-07-31T11:52:53;94271.78;;;27.77;50.67
12077;BME280;12420;42.676;23.262;2023-07-31T11:55:22;94266.16;;;27.79;49.78
12077;BME280;12420;42.676;23.262;2023-07-31T11:57:51;94254.50;;;27.53;51.62
12077;BME280;12420;42.676;23.262;2023-07-31T12:00:18;94236.91;;;27.38;50.88
12077;BME280;12420;42.676;23.262;2023-07-31T12:02:46;94255.84;;;27.69;53.25
12077;BME280;12420;42.676;23.262;2023-07-31T12:05:13;94254.84;;;27.81;54.72
12077;BME280;12420;42.676;23.262;2023-07-31T12:07:50;94266.22;;;27.81;52.98
12077;BME280;12420;42.676;23.262;2023-07-31T12:10:28;94244.13;;;27.97;52.64
12077;BME280;12420;42.676;23.262;2023-07-31T12:12:59;94247.47;;;28.31;54.23
12077;BME280;12420;42.676;23.262;2023-07-31T12:15:33;94252.78;;;28.21;54.48
12077;BME280;12420;42.676;23.262;2023-07-31T12:18:04;94242.09;;;28.20;53.92
12077;BME280;12420;42.676;23.262;2023-07-31T12:20:32;94250.25;;;28.29;53.30
12077;BME280;12420;42.676;23.262;2023-07-31T12:23:00;94247.78;;;28.00;53.20
12077;BME280;12420;42.676;23.262;2023-07-31T12:25:32;94257.16;;;27.66;51.77
12077;BME280;12420;42.676;23.262;2023-07-31T12:28:05;94236.25;;;27.40;52.51
12077;BME280;12420;42.676;23.262;2023-07-31T12:30:38;94220.88;;;27.47;52.29
12077;BME280;12420;42.676;23.262;2023-07-31T12:33:06;94231.72;;;27.70;51.35
12077;BME280;12420;42.676;23.262;2023-07-31T12:35:42;94253.09;;;27.89;51.28
12077;BME280;12420;42.676;23.262;2023-07-31T12:38:11;94235.66;;;27.61;50.67
12077;BME280;12420;42.676;23.262;2023-07-31T12:40:39;94243.38;;;27.59;51.39
12077;BME280;12420;42.676;23.262;2023-07-31T12:43:06;94170.34;;;26.90;51.00
12077;BME280;12420;42.676;23.262;2023-07-31T12:45:34;94237.06;;;27.24;51.63
12077;BME280;12420;42.676;23.262;2023-07-31T12:48:01;94163.13;;;26.87;50.69
12077;BME280;12420;42.676;23.262;2023-07-31T12:50:28;94196.16;;;27.32;51.57